Etusivu
METAR-TAF:

METAR-TAF

Lentoasemat :

Angola, Indiana, Yhdysvallat

Leveyspiiri: 41-38-23N, Pituuspiiri: 085-05-01W, korkeus merenpinnasta: 303 m

Tämänhetkinen sää

Tämä raportti tehtiin 28 minuuttia sitten, kello 15.15 UTC
Tuuli 7 kn etelästä/kaakosta
Lämpötila 24°C
Kosteus 74%
Ilmanpaine 1009 hPa
Näkyvyys: 16.1 km
Muutamia pilviä 5000 ft:n korkeudessa

METAR: KANQ 191515Z AUTO 15007KT 10SM FEW050 24/19 A2979 RMK AO2

Aika: 11:43 (15:43 UTC)


TAF: puuttuu

Säähavainnot ja -ennusteet yli 4000 lentoasemalta (METAR- ja TAF-raportit).

Käytössä olevat sääasemat on merkitty karttaan keltaisilla ja punaisilla pisteillä.

Aseta hiiri pisteen päälle nähdäksesi sääaseman nimen.

Klikkaa sitten nähdäksesi säähavainnot ja -ennusteet.

Kartan vaihtaminen: klikkaa mustalla rastilla varustettuja vihreitä pisteitä, niin voit zoomata sisään; viivalla varustettua vihreää pistettä, niin voit zoomata ulos tai vihreitä nuolia, niin pääset viereisille kartoille.


METAR-TAF: